createdAt,value
2018-08-07T00:01:05.454Z,21.90
2018-08-07T00:03:35.268Z,22.00
2018-08-07T00:06:04.201Z,22.10
2018-08-07T00:08:33.101Z,22.20
2018-08-07T00:11:02.977Z,22.30
2018-08-07T00:13:32.877Z,22.30
2018-08-07T00:16:01.805Z,22.20
2018-08-07T00:18:30.689Z,22.20
2018-08-07T00:21:02.629Z,22.20
2018-08-07T00:23:31.509Z,22.10
2018-08-07T00:26:01.350Z,22.00
2018-08-07T00:28:30.205Z,21.80
2018-08-07T00:30:59.105Z,21.80
2018-08-07T00:33:28.030Z,21.80
2018-08-07T00:35:56.889Z,21.90
2018-08-07T00:38:25.745Z,22.00
2018-08-07T00:40:55.593Z,22.10
2018-08-07T00:43:24.517Z,22.20
2018-08-07T00:45:56.744Z,22.30
2018-08-07T00:48:25.689Z,22.20
2018-08-07T00:50:54.525Z,22.10
2018-08-07T00:53:23.420Z,22.10
2018-08-07T00:55:53.213Z,22.10
2018-08-07T00:58:25.409Z,22.00
2018-08-07T01:00:56.313Z,22.00
2018-08-07T01:03:29.280Z,21.90
2018-08-07T01:08:26.656Z,21.80
2018-08-07T01:10:55.480Z,21.90
2018-08-07T01:13:26.377Z,21.80
2018-08-07T01:15:55.217Z,21.80
2018-08-07T01:18:24.063Z,21.80
2018-08-07T01:20:56.037Z,21.70
2018-08-07T01:23:24.860Z,21.70
2018-08-07T01:25:54.664Z,21.70
2018-08-07T01:28:23.596Z,21.70
2018-08-07T01:30:52.542Z,21.70
2018-08-07T01:33:21.453Z,21.60
2018-08-07T01:35:50.345Z,21.60
2018-08-07T01:38:19.229Z,21.60
2018-08-07T01:40:49.165Z,21.60
2018-08-07T01:43:18.448Z,21.70
2018-08-07T01:45:47.309Z,21.70
2018-08-07T01:48:16.180Z,21.70
2018-08-07T01:50:45.037Z,21.70
2018-08-07T01:53:13.977Z,21.70
2018-08-07T01:55:42.881Z,21.70
2018-08-07T01:58:14.883Z,21.70
2018-08-07T02:00:43.670Z,21.70
2018-08-07T02:03:12.557Z,21.70
2018-08-07T02:05:46.282Z,21.70
2018-08-07T02:08:15.116Z,21.70
2018-08-07T02:10:45.029Z,21.60
2018-08-07T02:13:15.856Z,21.70
2018-08-07T02:15:44.753Z,21.70
2018-08-07T02:18:13.631Z,21.70
2018-08-07T02:20:42.553Z,21.80
2018-08-07T02:23:11.416Z,21.80
2018-08-07T02:25:40.325Z,21.80
2018-08-07T02:28:11.200Z,21.80
2018-08-07T02:30:43.737Z,21.70
2018-08-07T02:33:12.572Z,21.60
2018-08-07T02:35:42.481Z,21.60
2018-08-07T02:38:12.377Z,21.50
2018-08-07T02:40:43.266Z,21.50
2018-08-07T02:43:12.064Z,21.40
2018-08-07T02:45:40.956Z,21.40
2018-08-07T02:48:09.868Z,21.30
2018-08-07T02:50:38.689Z,21.40
2018-08-07T02:53:07.496Z,21.40
2018-08-07T02:55:36.308Z,21.40
2018-08-07T02:58:09.925Z,21.40
2018-08-07T03:00:42.213Z,21.40
2018-08-07T03:03:11.221Z,21.30
2018-08-07T03:05:41.121Z,21.30
2018-08-07T03:08:10.993Z,21.30
2018-08-07T03:10:39.897Z,21.30
2018-08-07T03:13:08.788Z,21.20
2018-08-07T03:15:39.585Z,21.10
2018-08-07T03:18:08.408Z,21.00
2018-08-07T03:20:37.308Z,20.80
2018-08-07T03:23:07.001Z,20.70
2018-08-07T03:25:37.869Z,20.60
2018-08-07T03:28:08.709Z,20.60
2018-08-07T03:30:38.597Z,20.60
2018-08-07T03:33:09.448Z,20.70
2018-08-07T03:35:38.388Z,20.70
2018-08-07T03:38:07.376Z,20.70
2018-08-07T03:40:37.213Z,20.60
2018-08-07T03:43:06.096Z,20.50
2018-08-07T03:45:35.938Z,20.40
2018-08-07T03:48:06.778Z,20.30
2018-08-07T03:50:41.057Z,20.20
2018-08-07T03:53:09.897Z,20.10
2018-08-07T03:55:39.628Z,20.10
2018-08-07T03:58:15.416Z,20.10
2018-08-07T04:00:47.296Z,20.10
2018-08-07T04:03:17.820Z,20.00
2018-08-07T04:05:49.968Z,20.10
2018-08-07T04:08:20.800Z,20.10
2018-08-07T04:10:51.600Z,20.30
2018-08-07T04:13:20.408Z,20.40
2018-08-07T04:15:49.193Z,20.50
2018-08-07T04:18:17.948Z,20.60
2018-08-07T04:20:46.763Z,20.60
2018-08-07T04:23:16.560Z,20.70
2018-08-07T04:25:45.344Z,20.70
2018-08-07T04:28:15.173Z,20.70
2018-08-07T04:30:43.952Z,20.90
2018-08-07T04:33:12.720Z,21.10
2018-08-07T04:35:41.548Z,21.20
2018-08-07T04:38:10.364Z,21.40
2018-08-07T04:40:39.216Z,21.50
2018-08-07T04:43:08.008Z,21.60
2018-08-07T04:45:38.712Z,21.70
2018-08-07T04:48:09.512Z,21.80
2018-08-07T04:50:38.330Z,21.90
2018-08-07T04:53:08.200Z,21.80
2018-08-07T04:55:36.960Z,21.80
2018-08-07T04:58:09.428Z,21.80
2018-08-07T05:00:39.072Z,21.80
2018-08-07T05:03:07.940Z,21.90
2018-08-07T05:05:40.025Z,21.90
2018-08-07T05:08:08.752Z,21.90
2018-08-07T05:10:41.553Z,22.00
2018-08-07T05:13:10.342Z,22.10
2018-08-07T05:15:40.152Z,22.10
2018-08-07T05:18:08.983Z,22.20
2018-08-07T05:20:37.873Z,22.40
2018-08-07T05:23:06.780Z,22.60
2018-08-07T05:25:36.549Z,22.80
2018-08-07T05:28:05.304Z,23.00
2018-08-07T05:30:35.128Z,23.20
2018-08-07T05:33:05.040Z,23.20
2018-08-07T05:35:38.555Z,23.10
2018-08-07T05:38:07.500Z,23.10
2018-08-07T05:40:41.705Z,23.10
2018-08-07T05:43:10.460Z,23.20
2018-08-07T05:45:41.357Z,23.50
2018-08-07T05:48:10.232Z,23.80
2018-08-07T05:50:41.201Z,24.00
2018-08-07T05:53:10.864Z,24.10
2018-08-07T05:55:40.656Z,24.20
2018-08-07T05:58:10.620Z,24.40
2018-08-07T06:00:43.164Z,24.50
2018-08-07T06:03:15.009Z,24.50
2018-08-07T06:05:44.864Z,24.40
2018-08-07T06:08:14.746Z,24.30
2018-08-07T06:10:44.569Z,24.20
2018-08-07T06:13:13.308Z,24.10
2018-08-07T06:15:42.092Z,24.10
2018-08-07T06:18:10.912Z,24.30
2018-08-07T06:20:44.496Z,24.30
2018-08-07T06:23:14.428Z,24.40
2018-08-07T06:25:43.208Z,24.40
2018-08-07T06:28:19.804Z,24.60
2018-08-07T06:30:49.596Z,24.80
2018-08-07T06:33:18.464Z,24.90
2018-08-07T06:35:48.253Z,25.10
2018-08-07T06:38:18.260Z,25.40
2018-08-07T06:40:48.137Z,25.60
2018-08-07T06:43:16.873Z,25.70
2018-08-07T06:45:45.684Z,25.50
2018-08-07T06:48:14.452Z,25.40
2018-08-07T06:50:44.256Z,25.30
2018-08-07T06:53:13.057Z,25.30
2018-08-07T06:55:41.984Z,25.40
2018-08-07T06:58:10.860Z,25.60
2018-08-07T07:00:44.931Z,25.90
2018-08-07T07:03:13.756Z,26.30
2018-08-07T07:05:43.596Z,26.60
2018-08-07T07:08:13.323Z,26.90
2018-08-07T07:10:42.260Z,27.00
2018-08-07T07:13:13.186Z,27.20
2018-08-07T07:15:47.683Z,27.20
2018-08-07T07:18:18.472Z,27.20
2018-08-07T07:20:47.236Z,27.40
2018-08-07T07:23:21.071Z,27.80
2018-08-07T07:25:49.967Z,28.10
2018-08-07T07:28:18.755Z,28.20
2018-08-07T07:30:48.724Z,28.30
2018-08-07T07:33:18.675Z,28.60
2018-08-07T07:35:48.480Z,29.00
2018-08-07T07:38:24.188Z,29.40
2018-08-07T07:40:54.977Z,29.70
2018-08-07T07:45:49.434Z,30.00
2018-08-07T07:48:18.594Z,30.20
2018-08-07T07:50:51.280Z,30.30
2018-08-07T07:53:23.995Z,30.40
2018-08-07T07:55:54.796Z,30.60
2018-08-07T07:58:23.732Z,30.60
2018-08-07T08:00:52.476Z,30.70
2018-08-07T08:03:25.483Z,30.80
2018-08-07T08:05:54.272Z,30.90
2018-08-07T08:08:25.012Z,31.20
2018-08-07T08:10:53.803Z,31.10
2018-08-07T08:13:22.548Z,30.80
2018-08-07T08:15:51.400Z,30.80
2018-08-07T08:18:20.180Z,31.30
2018-08-07T08:20:52.812Z,32.10
2018-08-07T08:23:22.612Z,32.10
2018-08-07T08:25:51.488Z,32.40
2018-08-07T08:28:20.392Z,32.30
2018-08-07T08:30:54.315Z,32.10
2018-08-07T08:33:23.184Z,32.50
2018-08-07T08:35:53.964Z,33.30
2018-08-07T08:38:22.992Z,33.50
2018-08-07T08:40:53.860Z,33.50
2018-08-07T08:43:22.941Z,33.50
2018-08-07T08:48:28.144Z,34.00
2018-08-07T08:51:03.588Z,34.00
2018-08-07T08:53:33.468Z,34.10
2018-08-07T08:56:06.856Z,34.10
2018-08-07T08:58:37.672Z,34.40
2018-08-07T09:01:07.447Z,34.90
2018-08-07T09:03:36.260Z,35.20
2018-08-07T09:06:05.044Z,35.80
2018-08-07T09:08:35.800Z,35.80
2018-08-07T09:11:05.567Z,35.20
2018-08-07T09:13:35.302Z,35.10
2018-08-07T09:16:07.283Z,35.00
2018-08-07T09:18:37.115Z,35.30
2018-08-07T09:21:05.875Z,35.60
2018-08-07T09:23:38.067Z,36.10
2018-08-07T09:26:06.995Z,36.50
2018-08-07T09:28:36.723Z,36.10
2018-08-07T09:31:08.613Z,35.60
2018-08-07T09:33:38.316Z,35.80
2018-08-07T09:38:40.161Z,36.40
2018-08-07T09:41:08.956Z,37.10
2018-08-07T09:43:38.775Z,37.90
2018-08-07T09:46:09.515Z,38.50
2018-08-07T09:48:38.279Z,38.10
2018-08-07T09:51:10.667Z,37.50
2018-08-07T09:53:39.424Z,37.00
2018-08-07T09:56:09.287Z,36.50
2018-08-07T09:58:44.759Z,36.60
2018-08-07T10:01:19.914Z,37.10
2018-08-07T10:03:50.651Z,37.30
2018-08-07T10:06:19.411Z,36.80
2018-08-07T10:08:49.152Z,36.50
2018-08-07T10:11:17.907Z,36.30
2018-08-07T10:13:46.619Z,36.20
2018-08-07T10:16:15.539Z,36.20
2018-08-07T10:18:45.294Z,36.60
2018-08-07T10:21:15.099Z,37.30
2018-08-07T10:23:43.827Z,37.10
2018-08-07T10:26:13.712Z,37.40
2018-08-07T10:28:43.475Z,38.10
2018-08-07T10:31:13.299Z,38.30
2018-08-07T10:33:43.205Z,38.60
2018-08-07T10:36:13.055Z,39.30
2018-08-07T10:38:41.838Z,39.60
2018-08-07T10:41:11.765Z,39.80
2018-08-07T10:43:40.483Z,39.90
2018-08-07T10:46:18.811Z,39.80
2018-08-07T10:48:48.491Z,40.30
2018-08-07T10:51:18.203Z,41.30
2018-08-07T10:53:52.994Z,41.80
2018-08-07T10:56:25.474Z,41.60
2018-08-07T10:58:54.222Z,41.20
2018-08-07T11:01:26.275Z,41.70
2018-08-07T11:03:55.047Z,42.40
2018-08-07T11:06:23.855Z,43.00
2018-08-07T11:08:54.347Z,43.40
2018-08-07T11:11:28.843Z,42.00
2018-08-07T11:13:57.691Z,40.50
2018-08-07T11:16:30.879Z,40.60
2018-08-07T11:18:59.607Z,42.10
2018-08-07T11:21:28.358Z,42.90
2018-08-07T11:23:57.110Z,42.30
2018-08-07T11:26:27.898Z,40.90
2018-08-07T11:28:57.686Z,40.60
2018-08-07T11:31:26.395Z,40.30
2018-08-07T11:33:55.135Z,39.80
2018-08-07T11:36:24.187Z,39.70
2018-08-07T11:38:53.071Z,39.30
2018-08-07T11:41:22.821Z,39.30
2018-08-07T11:43:53.559Z,39.10
2018-08-07T11:46:22.312Z,39.10
2018-08-07T11:48:51.156Z,40.10
2018-08-07T11:51:19.967Z,41.00
2018-08-07T11:53:50.703Z,40.90
2018-08-07T11:56:20.479Z,40.40
2018-08-07T11:58:50.295Z,40.40
2018-08-07T12:01:26.463Z,40.80
2018-08-07T12:03:55.175Z,40.90
2018-08-07T12:06:28.707Z,41.60
2018-08-07T12:08:57.539Z,41.60
2018-08-07T12:11:30.407Z,40.60
2018-08-07T12:13:59.174Z,40.80
2018-08-07T12:16:29.911Z,41.20
2018-08-07T12:19:09.663Z,41.30
2018-08-07T12:21:39.517Z,41.60
2018-08-07T12:24:08.255Z,42.40
2018-08-07T12:26:37.078Z,43.00
2018-08-07T12:29:06.830Z,42.30
2018-08-07T12:31:36.154Z,42.30
2018-08-07T12:34:05.898Z,43.40
2018-08-07T12:36:35.999Z,44.20
2018-08-07T12:44:06.567Z,44.20
2018-08-07T12:46:35.415Z,44.60
2018-08-07T12:49:04.207Z,45.60
2018-08-07T12:51:33.043Z,45.70
2018-08-07T12:54:02.799Z,44.40
2018-08-07T12:56:32.567Z,42.80
2018-08-07T12:59:01.342Z,42.00
2018-08-07T13:01:33.543Z,42.20
2018-08-07T13:04:03.274Z,41.60
2018-08-07T13:06:39.773Z,40.70
2018-08-07T13:09:14.426Z,40.40
2018-08-07T13:11:44.259Z,41.00
2018-08-07T13:14:17.682Z,42.30
2018-08-07T13:16:46.543Z,43.10
2018-08-07T13:19:15.327Z,41.80
2018-08-07T13:21:44.042Z,40.70
2018-08-07T13:24:12.902Z,40.90
2018-08-07T13:26:42.719Z,41.60
2018-08-07T13:29:11.486Z,41.80
2018-08-07T13:31:40.347Z,41.80
2018-08-07T13:34:13.622Z,42.20
2018-08-07T13:36:43.442Z,42.80
2018-08-07T13:39:12.178Z,42.30
2018-08-07T13:41:40.931Z,41.70
2018-08-07T13:44:15.295Z,41.50
2018-08-07T13:46:47.264Z,41.60
2018-08-07T13:54:17.531Z,39.60
2018-08-07T13:56:47.278Z,38.90
2018-08-07T13:59:17.131Z,38.50
2018-08-07T14:01:45.866Z,38.60
2018-08-07T14:04:17.938Z,39.20
2018-08-07T14:06:48.270Z,39.20
2018-08-07T14:09:17.212Z,38.90
2018-08-07T14:11:46.254Z,38.70
2018-08-07T14:14:16.122Z,38.20
2018-08-07T14:19:20.362Z,37.40
2018-08-07T14:21:49.276Z,37.10
2018-08-07T14:24:21.586Z,36.90
2018-08-07T14:26:52.318Z,36.70
2018-08-07T14:29:21.074Z,36.60
2018-08-07T14:31:50.946Z,36.60
2018-08-07T14:34:23.923Z,36.50
2018-08-07T14:36:52.739Z,36.50
2018-08-07T14:39:21.478Z,36.50
2018-08-07T14:41:50.310Z,36.30
2018-08-07T14:44:21.083Z,36.10
2018-08-07T14:46:50.915Z,36.20
2018-08-07T14:49:24.002Z,36.00
2018-08-07T14:51:52.762Z,35.50
2018-08-07T14:54:24.946Z,35.10
2018-08-07T14:56:53.698Z,35.10
2018-08-07T14:59:22.454Z,34.90
2018-08-07T15:01:52.188Z,34.80
2018-08-07T15:05:28.223Z,35.10
2018-08-07T15:08:00.483Z,35.30
2018-08-07T15:10:32.427Z,35.20
2018-08-07T15:13:01.243Z,34.80
2018-08-07T15:15:31.459Z,34.50
2018-08-07T15:18:01.280Z,34.40
2018-08-07T15:20:32.211Z,34.30
2018-08-07T15:23:01.947Z,34.10
2018-08-07T15:25:30.747Z,33.90
2018-08-07T15:28:01.387Z,34.00
2018-08-07T15:30:32.223Z,34.00
2018-08-07T15:33:03.016Z,33.70
2018-08-07T15:35:33.895Z,33.90
2018-08-07T15:38:02.635Z,33.80
2018-08-07T15:40:32.366Z,33.70
2018-08-07T15:43:05.236Z,33.60
2018-08-07T15:45:34.036Z,33.60
2018-08-07T15:48:02.714Z,33.30
2018-08-07T15:50:31.555Z,33.20
2018-08-07T15:53:01.440Z,32.90
2018-08-07T15:55:31.107Z,32.80
2018-08-07T15:57:59.843Z,32.80
2018-08-07T16:00:30.487Z,32.70
2018-08-07T16:03:03.959Z,32.70
2018-08-07T16:05:32.740Z,32.60
2018-08-07T16:08:02.675Z,32.40
2018-08-07T16:10:31.403Z,32.40
2018-08-07T16:13:00.135Z,32.10
2018-08-07T16:15:28.996Z,32.00
2018-08-07T16:17:58.835Z,31.90
2018-08-07T16:20:29.319Z,31.80
2018-08-07T16:22:58.587Z,31.60
2018-08-07T16:25:27.339Z,31.50
2018-08-07T16:27:56.119Z,31.20
2018-08-07T16:30:25.768Z,31.10
2018-08-07T16:32:55.427Z,31.00
2018-08-07T16:35:24.248Z,31.00
2018-08-07T16:37:52.947Z,31.10
2018-08-07T16:40:22.970Z,31.00
2018-08-07T16:42:52.706Z,31.00
2018-08-07T16:45:22.398Z,31.00
2018-08-07T16:47:52.198Z,31.00
2018-08-07T16:50:25.690Z,31.10
2018-08-07T16:52:56.255Z,31.00
2018-08-07T16:55:27.048Z,30.90
2018-08-07T16:57:55.786Z,30.70
2018-08-07T17:00:24.522Z,30.70
2018-08-07T17:02:53.430Z,30.70
2018-08-07T17:05:25.352Z,30.70
2018-08-07T17:07:54.142Z,30.70
2018-08-07T17:10:26.062Z,30.70
2018-08-07T17:13:00.634Z,30.60
2018-08-07T17:15:33.435Z,30.60
2018-08-07T17:18:05.260Z,30.60
2018-08-07T17:20:35.023Z,30.70
2018-08-07T17:23:03.757Z,30.80
2018-08-07T17:25:32.511Z,30.80
2018-08-07T17:28:10.858Z,30.90
2018-08-07T17:30:40.566Z,31.10
2018-08-07T17:33:14.503Z,31.20
2018-08-07T17:35:44.215Z,31.30
2018-08-07T17:38:16.555Z,31.40
2018-08-07T17:40:46.406Z,31.50
2018-08-07T17:43:15.159Z,31.20
2018-08-07T17:45:44.963Z,30.90
2018-08-07T17:48:13.735Z,30.50
2018-08-07T17:50:42.547Z,30.10
2018-08-07T17:53:11.348Z,29.70
2018-08-07T17:55:41.038Z,29.50
2018-08-07T17:58:09.827Z,29.10
2018-08-07T18:00:38.615Z,28.90
2018-08-07T18:03:08.434Z,28.60
2018-08-07T18:05:38.159Z,28.40
2018-08-07T18:08:07.063Z,28.20
2018-08-07T18:10:35.835Z,28.10
2018-08-07T18:13:04.843Z,27.90
2018-08-07T18:15:35.574Z,27.70
2018-08-07T18:18:05.371Z,27.50
2018-08-07T18:20:35.171Z,27.30
2018-08-07T18:23:03.963Z,27.20
2018-08-07T18:25:34.811Z,27.10
2018-08-07T18:28:03.543Z,26.90
2018-08-07T18:30:32.346Z,26.90
2018-08-07T18:33:01.155Z,26.70
2018-08-07T18:35:30.930Z,26.70
2018-08-07T18:37:59.766Z,26.60
2018-08-07T18:40:28.562Z,26.50
2018-08-07T18:42:57.430Z,26.40
2018-08-07T18:45:30.054Z,26.40
2018-08-07T18:47:59.825Z,26.40
2018-08-07T18:50:28.666Z,26.30
2018-08-07T18:52:58.564Z,26.20
2018-08-07T18:55:29.362Z,26.20
2018-08-07T18:57:58.419Z,26.10
2018-08-07T19:00:30.307Z,26.00
2018-08-07T19:03:02.294Z,25.90
2018-08-07T19:05:32.083Z,25.80
2018-08-07T19:08:05.296Z,25.80
2018-08-07T19:10:36.811Z,25.70
2018-08-07T19:13:10.494Z,25.70
2018-08-07T19:15:40.370Z,25.70
2018-08-07T19:18:09.494Z,25.60
2018-08-07T19:20:40.334Z,25.50
2018-08-07T19:23:09.282Z,25.50
2018-08-07T19:25:39.090Z,25.50
2018-08-07T19:28:08.906Z,25.40
2018-08-07T19:30:37.705Z,25.40
2018-08-07T19:33:06.614Z,25.40
2018-08-07T19:35:36.258Z,25.30
2018-08-07T19:38:05.410Z,25.20
2018-08-07T19:40:34.310Z,25.20
2018-08-07T19:43:07.402Z,25.10
2018-08-07T19:45:43.638Z,25.10
2018-08-07T19:48:12.530Z,24.90
2018-08-07T19:50:46.574Z,24.70
2018-08-07T19:53:15.409Z,24.70
2018-08-07T19:55:45.292Z,24.70
2018-08-07T19:58:21.834Z,24.60
2018-08-07T20:00:51.633Z,24.50
2018-08-07T20:03:21.452Z,24.40
2018-08-07T20:05:52.146Z,24.30
2018-08-07T20:08:20.882Z,24.20
2018-08-07T20:10:49.796Z,24.00
2018-08-07T20:13:22.804Z,23.90
2018-08-07T20:15:54.919Z,23.90
2018-08-07T20:18:25.802Z,23.90
2018-08-07T20:20:54.639Z,23.70
2018-08-07T20:23:27.114Z,23.70
2018-08-07T20:25:59.674Z,23.60
2018-08-07T20:28:31.628Z,23.70
2018-08-07T20:31:00.474Z,23.70
2018-08-07T20:33:29.226Z,23.70
2018-08-07T20:36:00.027Z,23.70
2018-08-07T20:38:28.867Z,23.70
2018-08-07T20:40:57.718Z,23.70
2018-08-07T20:43:29.670Z,23.60
2018-08-07T20:45:58.466Z,23.60
2018-08-07T20:48:29.290Z,23.60
2018-08-07T20:50:58.083Z,23.50
2018-08-07T20:53:27.955Z,23.30
2018-08-07T20:55:56.826Z,23.20
2018-08-07T20:58:25.695Z,23.10
2018-08-07T21:00:54.563Z,23.10
2018-08-07T21:03:24.319Z,23.10
2018-08-07T21:05:59.934Z,23.10
2018-08-07T21:08:33.210Z,23.10
2018-08-07T21:11:05.562Z,23.10
2018-08-07T21:13:37.446Z,23.00
2018-08-07T21:16:11.174Z,23.00
2018-08-07T21:18:40.982Z,23.00
2018-08-07T21:21:10.782Z,23.00
2018-08-07T21:23:40.604Z,23.10
2018-08-07T21:26:09.390Z,23.10
2018-08-07T21:28:39.224Z,23.10
2018-08-07T21:31:17.544Z,23.10
2018-08-07T21:33:46.385Z,23.20
2018-08-07T21:36:15.158Z,23.20
2018-08-07T21:38:43.961Z,23.30
2018-08-07T21:41:12.819Z,23.30
2018-08-07T21:43:41.554Z,23.40
2018-08-07T21:46:12.382Z,23.50
2018-08-07T21:48:41.162Z,23.40
2018-08-07T21:51:10.986Z,23.40
2018-08-07T21:53:40.786Z,23.40
2018-08-07T21:56:09.578Z,23.30
2018-08-07T21:58:43.586Z,23.30
2018-08-07T22:01:13.390Z,23.20
2018-08-07T22:03:42.234Z,23.10
2018-08-07T22:06:10.966Z,23.00
2018-08-07T22:08:39.762Z,23.00
2018-08-07T22:11:09.706Z,22.90
2018-08-07T22:13:38.586Z,22.80
2018-08-07T22:16:07.442Z,22.80
2018-08-07T22:18:36.294Z,22.80
2018-08-07T22:21:05.229Z,22.80
2018-08-07T22:23:36.066Z,22.80
2018-08-07T22:26:05.906Z,22.70
2018-08-07T22:28:34.723Z,22.60
2018-08-07T22:31:03.590Z,22.50
2018-08-07T22:33:34.438Z,22.40
2018-08-07T22:36:04.638Z,22.30
2018-08-07T22:38:33.486Z,22.30
2018-08-07T22:41:04.417Z,22.30
2018-08-07T22:43:33.302Z,22.40
2018-08-07T22:46:02.194Z,22.40
2018-08-07T22:48:33.047Z,22.40
2018-08-07T22:51:01.942Z,22.40
2018-08-07T22:53:31.866Z,22.30
2018-08-07T22:56:01.754Z,22.30
2018-08-07T22:58:34.298Z,22.30
2018-08-07T23:01:03.194Z,22.20
2018-08-07T23:03:34.042Z,22.20
2018-08-07T23:06:02.922Z,22.20
2018-08-07T23:08:36.286Z,22.20
2018-08-07T23:11:05.164Z,22.20
2018-08-07T23:13:34.054Z,22.20
2018-08-07T23:16:03.862Z,22.30
2018-08-07T23:18:33.677Z,22.40
2018-08-07T23:21:03.553Z,22.40
2018-08-07T23:23:32.453Z,22.40
2018-08-07T23:26:01.305Z,22.50
2018-08-07T23:28:34.177Z,22.70
2018-08-07T23:31:09.945Z,22.90
2018-08-07T23:33:38.849Z,23.00
2018-08-07T23:36:07.802Z,23.00
2018-08-07T23:38:37.710Z,23.10
2018-08-07T23:41:12.264Z,23.00
2018-08-07T23:43:41.159Z,23.00
2018-08-07T23:46:11.982Z,22.90
2018-08-07T23:48:40.922Z,22.80
2018-08-07T23:51:13.669Z,22.80
2018-08-07T23:53:42.590Z,22.80
2018-08-07T23:56:11.562Z,22.70
2018-08-07T23:58:41.514Z,22.70
